Terminal Aerodrome Forecast
Issued by NWS

Home | Current Version | Previous Version | Text Only | Print | Product List | Glossary On
Versions: 1 2 3 4 5 6 7 8 9 10 11 12 13 14
000
FTUS45 KABQ 240520
TAFSAF
TAF
KSAF 240520Z 2406/2506 12015G22KT P6SM FEW250
     FM241100 14011KT P6SM SCT025 SCT250
     FM241800 15007KT P6SM FEW250
     FM242100 22008KT P6SM FEW250=

USA.gov is the U.S. government's official web portal to all federal, state and local government web resources and services.